Pengilly, MN

9:41 PM CDT on September 20, 2014 (GMT -0500)
Chisholm-hibbing | Change Station
CLOSE
Current Station
Airport
Location: Hibbing,
Elevation: 1352 ft
Nearby Weather Stations

Elev 1352 ft 47.39 °N, 92.84 °W | Updated 48 minutes ago

Rain
Rain
55 °F
Feels Like 55 °F
N
13
Wind Variable Wind from NNW

Today
High -- | Low -- °F
--% Chance of Precip.
Yesterday
High -- | Low -- °F
Precip. -- in
6:56 AM 7:14 PM
Waning Crescent, 9% visible
Pressure 29.73 in
Visibility 6.0 miles
Clouds Few 900 ft
Scattered Clouds 2400 ft
Overcast 5500 ft
Dew Point 52 °F
Humidity 89%
Rainfall 0.65 in
Snow Depth Not available.
UV 0 out of 12
Pollen .40 out of 12
Air Quality Not available.
Flu Activity Not available.
METAR KHIB 210153Z AUTO 34011KT 6SM RA BR FEW009 SCT024 OVC055 13/11 A2972 RMK AO2 SLP066 P0014 T01280111

More Conditions Fewer Conditions

Pressure 29.73 in
Visibility 6.0 miles
Clouds Few 900 ft
Scattered Clouds 2400 ft
Overcast 5500 ft
Dew Point 52 °F
Humidity 89%
Rainfall 0.65 in
Snow Depth Not available.
UV 0 out of 12
Pollen .40 out of 12
Air Quality Not available.
Flu Activity Not available.
METAR KHIB 210153Z AUTO 34011KT 6SM RA BR FEW009 SCT024 OVC055 13/11 A2972 RMK AO2 SLP066 P0014 T01280111

More Conditions Fewer Conditions

10-Day Weather Forecast

Almanac

Astronomy

Sep. 20, 2014 Rise Set
Actual Time 6:56 AM CDT 7:14 PM CDT
Civil Twilight 6:26 AM CDT 7:44 PM CDT
Nautical Twilight 5:49 AM CDT 8:21 PM CDT
Astronomical Twilight 5:12 AM CDT 8:58 PM CDT
Moon 3:25 AM CDT (9/20) 5:27 PM CDT (9/20)
Length of Visible Light 13h 18m
Length of Day
12h 17m
Tomorrow will be 3m 23s shorter.
Waning Crescent, 9% of the Moon is Illuminated
Today
Waning Crescent
Sep 24
New
Oct 1
First Quarter
Oct 8
Full
Oct 15
Last Quarter

Today's Extremes

State Highs State Lows

Community

WunderPhotos

Upload Photos

1,755,066 photos uploaded!

WunderBlogs® & News

Nearby

Snow Depth

Station Depth Elevation
No new snow has been reported.

Earthquake Activity

City Distance Mag. Time & Date
No recent earthquake activity has been reported nearby.
Minimum magnitude displayed is 2.5.

Coastal Water Temperatures

Place Temperature
No Stations Reporting

Nearby Weather Stations